Time;durP1;ratioP1;P1;durP2;ratioP2;P2;SDS_P1;SDS_P2;PMS_P1;PMS_P2;Temp;Humidity;BMP_temperature;BMP_pressure;BME280_temperature;BME280_humidity;BME280_pressure;Samples;Min_cycle;Max_cycle;Signal;HPM_P1;HPM_P2
2021/10/23 00:00:08;;;;;;;9.23;8.13;;;;;;;16.39;67.81;101120.09;5011229;28;102365;-88
2021/10/23 00:02:35;;;;;;;11.13;8.43;;;;;;;16.39;68.25;101114.59;5006346;28;103394;-88
2021/10/23 00:05:04;;;;;;;8.38;7.53;;;;;;;16.39;68.01;101119.28;5010064;28;102271;-88
2021/10/23 00:07:32;;;;;;;9.20;8.20;;;;;;;16.39;67.78;101114.59;5007911;28;102385;-87
2021/10/23 00:09:58;;;;;;;10.27;8.55;;;;;;;16.39;67.80;101114.59;5009621;28;102335;-89
2021/10/23 00:12:25;;;;;;;9.95;8.48;;;;;;;16.39;67.92;101109.09;5005706;28;103794;-89
2021/10/23 00:14:52;;;;;;;9.77;8.00;;;;;;;16.39;68.31;101114.59;5007524;28;102255;-89
2021/10/23 00:17:18;;;;;;;11.38;8.38;;;;;;;16.39;68.36;101120.09;5008434;28;102348;-89
2021/10/23 00:19:48;;;;;;;8.77;7.85;;;;;;;16.38;67.99;101118.47;5015108;28;102230;-90
2021/10/23 00:22:17;;;;;;;8.18;7.32;;;;;;;16.39;68.02;101119.28;5011716;28;102806;-89
2021/10/23 00:24:44;;;;;;;9.23;7.83;;;;;;;16.39;68.31;101120.09;5006363;28;102194;-88
2021/10/23 00:27:13;;;;;;;10.35;7.70;;;;;;;16.38;68.31;101118.47;5007330;28;102239;-88
2021/10/23 00:29:43;;;;;;;9.65;7.93;;;;;;;16.39;67.73;101103.59;5014198;28;105271;-88
2021/10/23 00:32:10;;;;;;;8.50;7.60;;;;;;;16.39;68.09;101100.84;5010534;28;104018;-88
2021/10/23 00:34:37;;;;;;;9.88;7.80;;;;;;;16.39;67.68;101095.38;5012676;28;102088;-89
2021/10/23 00:37:04;;;;;;;7.97;7.18;;;;;;;16.39;68.00;101091.81;5014582;28;102156;-89
2021/10/23 00:39:32;;;;;;;8.35;7.43;;;;;;;16.39;67.82;101097.28;5013390;28;102216;-89
2021/10/23 00:41:58;;;;;;;9.02;7.88;;;;;;;16.38;67.78;101104.72;5013612;28;103734;-91
2021/10/23 00:44:30;;;;;;;7.82;7.03;;;;;;;16.40;68.13;101104.41;5011874;28;102589;-80
2021/10/23 00:47:00;;;;;;;9.10;7.78;;;;;;;16.39;68.14;101097.28;5003181;28;102589;-81
2021/10/23 00:49:27;;;;;;;10.30;7.53;;;;;;;16.38;67.93;101107.47;5009223;28;102163;-81
2021/10/23 00:51:54;;;;;;;8.07;7.20;;;;;;;16.38;68.04;101099.22;5013442;28;102424;-81
2021/10/23 00:54:21;;;;;;;7.97;6.63;;;;;;;16.38;68.06;101096.50;5002993;28;102780;-80
2021/10/23 00:56:49;;;;;;;9.60;7.80;;;;;;;16.39;68.32;101103.59;5011870;28;102323;-80
2021/10/23 00:59:15;;;;;;;10.40;7.22;;;;;;;16.39;68.29;101097.28;5012807;28;102830;-81
2021/10/23 01:01:42;;;;;;;8.68;7.70;;;;;;;16.38;67.98;101101.97;5006835;28;103896;-90
2021/10/23 01:04:09;;;;;;;7.90;7.10;;;;;;;16.38;67.91;101093.75;5001392;28;102618;-80
2021/10/23 01:06:36;;;;;;;8.90;7.13;;;;;;;16.39;67.76;101103.59;5005719;28;102338;-80
2021/10/23 01:09:05;;;;;;;7.63;6.82;;;;;;;16.39;67.80;101106.34;5013260;28;102230;-81
2021/10/23 01:11:31;;;;;;;7.95;7.15;;;;;;;16.39;67.84;101102.78;5010097;28;102927;-81
2021/10/23 01:13:59;;;;;;;8.40;7.18;;;;;;;16.38;67.91;101096.50;5012157;28;102210;-79
2021/10/23 01:16:26;;;;;;;7.55;6.75;;;;;;;16.39;68.50;101098.09;5008149;28;103140;-80
2021/10/23 01:18:59;;;;;;;7.57;6.80;;;;;;;16.38;67.93;101096.50;5011952;28;102133;-80
2021/10/23 01:21:26;;;;;;;8.35;6.97;;;;;;;16.40;68.35;101107.16;5002667;28;105276;-81
2021/10/23 01:23:53;;;;;;;8.90;6.43;;;;;;;16.39;68.21;101097.28;5003230;28;102173;-81
2021/10/23 01:26:23;;;;;;;9.98;7.32;;;;;;;16.38;68.32;101104.72;5002076;28;102550;-81
2021/10/23 01:28:50;;;;;;;;;;;;;;;16.39;68.13;101092.63;5007770;28;102282;-81
2021/10/23 01:31:16;;;;;;;7.78;7.00;;;;;;;16.40;68.25;101099.72;5001461;28;104049;-81
2021/10/23 01:33:43;;;;;;;7.38;6.68;;;;;;;16.39;68.22;101098.09;5008599;28;102255;-80
2021/10/23 01:36:13;;;;;;;8.82;7.63;;;;;;;16.39;68.00;101092.63;5010956;28;102228;-81
2021/10/23 01:38:41;;;;;;;8.07;6.93;;;;;;;16.39;67.86;101103.59;5015762;27;102365;-90
2021/10/23 01:41:08;;;;;;;8.00;6.67;;;;;;;16.40;67.95;101105.22;5015139;28;102925;-81
2021/10/23 01:43:35;;;;;;;9.13;7.10;;;;;;;16.40;68.13;101096.97;5012990;28;102852;-81
2021/10/23 01:46:02;;;;;;;8.25;7.22;;;;;;;16.40;68.03;101101.66;5013747;28;102153;-81
2021/10/23 01:48:28;;;;;;;8.65;6.80;;;;;;;16.39;68.25;101098.09;5016673;28;102315;-81
2021/10/23 01:50:56;;;;;;;7.75;6.20;;;;;;;16.39;67.79;101092.63;5006925;28;103574;-80
2021/10/23 01:53:22;;;;;;;7.05;6.35;;;;;;;16.40;68.03;101109.91;5007981;28;104600;-81
2021/10/23 01:55:52;;;;;;;8.02;7.18;;;;;;;16.40;68.22;101109.91;5016391;28;102188;-80
2021/10/23 01:58:18;;;;;;;7.63;6.82;;;;;;;16.40;68.14;101110.72;5009514;28;102258;-90
2021/10/23 02:00:45;;;;;;;9.15;6.72;;;;;;;16.40;68.01;101121.72;5015447;28;104096;-89
2021/10/23 02:03:12;;;;;;;7.28;6.35;;;;;;;16.39;68.02;101114.59;5015963;28;102417;-88
2021/10/23 02:05:41;;;;;;;7.10;6.30;;;;;;;16.39;68.21;101120.09;5013147;28;103590;-90
2021/10/23 02:08:08;;;;;;;6.68;5.97;;;;;;;16.39;67.87;101120.09;5014596;28;102807;-90
2021/10/23 02:10:34;;;;;;;7.05;6.35;;;;;;;16.40;68.20;101131.88;5013737;28;103225;-89
2021/10/23 02:13:02;;;;;;;7.90;6.60;;;;;;;16.39;67.81;101131.06;5015234;28;102385;-88
2021/10/23 02:15:29;;;;;;;6.87;5.90;;;;;;;16.40;68.20;101120.91;5013943;28;103231;-89
2021/10/23 02:17:56;;;;;;;7.80;6.45;;;;;;;16.40;68.19;101129.13;5011666;28;102509;-81
2021/10/23 02:20:22;;;;;;;7.38;6.53;;;;;;;16.40;67.99;101131.88;5011959;28;103357;-80
2021/10/23 02:22:49;;;;;;;8.00;6.78;;;;;;;16.39;68.03;101125.56;5013537;27;102661;-80
2021/10/23 02:25:15;;;;;;;7.60;6.43;;;;;;;16.39;68.10;101125.56;5010572;28;102533;-80
2021/10/23 02:27:42;;;;;;;8.18;6.18;;;;;;;16.39;67.91;101131.06;5012734;28;102297;-80
2021/10/23 02:30:10;;;;;;;6.57;5.82;;;;;;;16.40;67.93;101131.88;5014171;28;106136;-80
2021/10/23 02:32:37;;;;;;;8.77;6.72;;;;;;;16.40;68.00;101131.88;5013691;28;102249;-80
2021/10/23 02:35:05;;;;;;;6.80;6.15;;;;;;;16.40;68.33;101135.44;5012421;28;102039;-80
2021/10/23 02:37:31;;;;;;;8.43;6.28;;;;;;;16.38;68.43;101132.19;5015008;28;102406;-80
2021/10/23 02:39:58;;;;;;;6.88;5.88;;;;;;;16.39;68.38;101142.06;5009604;28;103941;-90
2021/10/23 02:42:24;;;;;;;7.03;6.15;;;;;;;16.40;68.08;101132.69;5015676;28;102085;-93
2021/10/23 02:44:51;;;;;;;6.43;5.53;;;;;;;16.39;68.00;101139.31;5008965;28;102202;-89
2021/10/23 02:47:19;;;;;;;6.85;6.15;;;;;;;16.40;68.08;101146.44;5012825;28;102400;-90
2021/10/23 02:49:45;;;;;;;8.00;6.53;;;;;;;16.40;67.98;101137.38;5014836;28;102713;-90
2021/10/23 02:52:11;;;;;;;6.82;6.13;;;;;;;16.40;67.90;101140.13;5015107;28;102489;-89
2021/10/23 02:54:39;;;;;;;6.30;5.70;;;;;;;16.40;68.35;101132.69;5005048;28;102145;-89
2021/10/23 02:57:06;;;;;;;11.55;6.35;;;;;;;16.40;67.85;101138.19;5013873;28;102295;-81
2021/10/23 02:59:33;;;;;;;6.40;5.70;;;;;;;16.39;67.98;101136.56;5005611;28;103810;-81
2021/10/23 03:01:59;;;;;;;6.78;5.88;;;;;;;16.40;68.34;101138.19;5012816;28;102081;-81
2021/10/23 03:04:27;;;;;;;6.40;5.80;;;;;;;16.40;67.96;101131.88;5007639;28;102286;-81
2021/10/23 03:06:54;;;;;;;7.10;5.72;;;;;;;16.40;68.27;101142.88;5013710;28;102600;-81
2021/10/23 03:09:20;;;;;;;7.82;6.40;;;;;;;16.40;67.85;101146.44;5006512;28;104049;-80
2021/10/23 03:11:46;;;;;;;6.60;5.47;;;;;;;16.39;68.25;101139.31;5012988;28;102588;-80
2021/10/23 03:14:13;;;;;;;6.57;5.57;;;;;;;16.39;68.11;101144.81;5011609;28;102220;-81
2021/10/23 03:16:41;;;;;;;5.82;5.28;;;;;;;16.41;68.16;101142.59;5013077;28;102620;-80
2021/10/23 03:19:09;;;;;;;7.45;5.80;;;;;;;16.40;68.46;101138.19;5013354;28;103726;-80
2021/10/23 03:21:37;;;;;;;6.72;6.03;;;;;;;16.40;67.78;101132.69;5011124;28;102263;-80
2021/10/23 03:24:05;;;;;;;7.07;5.28;;;;;;;16.40;67.99;101138.19;5012561;28;102050;-80
2021/10/23 03:26:31;;;;;;;7.13;5.63;;;;;;;16.40;68.10;101135.44;5015000;28;102220;-80
2021/10/23 03:28:58;;;;;;;7.13;5.70;;;;;;;16.40;68.11;101132.69;5014732;28;103072;-80
2021/10/23 03:31:24;;;;;;;7.38;5.85;;;;;;;16.40;68.35;101135.44;5014353;28;102524;-80
2021/10/23 03:33:50;;;;;;;6.70;5.70;;;;;;;16.40;68.17;101138.19;5012841;28;102183;-80
2021/10/23 03:36:17;;;;;;;6.53;5.82;;;;;;;16.40;67.75;101137.38;5015530;28;102429;-89
2021/10/23 03:38:45;;;;;;;6.45;5.80;;;;;;;16.39;68.48;101142.06;5013584;28;102741;-89
2021/10/23 03:41:11;;;;;;;9.55;5.82;;;;;;;16.40;68.30;101140.94;5013292;28;102396;-90
2021/10/23 03:43:38;;;;;;;7.57;5.97;;;;;;;16.39;68.43;101142.06;5008600;28;102434;-90
2021/10/23 03:46:04;;;;;;;6.93;6.15;;;;;;;16.41;68.27;101150.81;5006797;28;102933;-90
2021/10/23 03:48:31;;;;;;;6.65;5.85;;;;;;;16.41;68.46;101150.81;5016011;28;104190;-92
2021/10/23 03:50:58;;;;;;;6.78;5.05;;;;;;;16.41;67.93;101161.81;5008732;28;102763;-90
2021/10/23 03:53:24;;;;;;;6.15;5.55;;;;;;;16.41;68.37;101161.81;5005929;28;102171;-81
2021/10/23 03:55:52;;;;;;;6.10;5.32;;;;;;;16.40;68.47;101149.19;5014579;28;103048;-81
2021/10/23 03:58:19;;;;;;;6.07;5.30;;;;;;;16.40;68.21;101151.13;5005725;28;104474;-80
2021/10/23 04:00:45;;;;;;;6.55;5.90;;;;;;;16.40;68.38;101160.16;5017454;28;102703;-80
2021/10/23 04:03:12;;;;;;;7.57;5.88;;;;;;;16.40;68.41;101142.88;5016375;28;102231;-80
2021/10/23 04:05:39;;;;;;;6.15;5.30;;;;;;;16.40;67.81;101154.66;5014233;28;102442;-80
2021/10/23 04:08:05;;;;;;;6.22;5.45;;;;;;;16.40;68.36;101159.34;5018158;28;102734;-80
2021/10/23 04:10:32;;;;;;;6.18;5.55;;;;;;;16.40;68.10;101171.16;5012152;28;102419;-80
2021/10/23 04:13:03;;;;;;;7.18;5.57;;;;;;;16.40;68.45;101176.66;5011849;28;102078;-79
2021/10/23 04:15:29;;;;;;;6.50;5.35;;;;;;;16.40;67.90;101178.59;5016689;28;102303;-80
2021/10/23 04:17:56;;;;;;;6.88;5.93;;;;;;;16.40;68.05;101179.38;5013968;28;103216;-80
2021/10/23 04:20:22;;;;;;;7.28;5.50;;;;;;;16.41;67.95;101177.47;5007316;28;103086;-79
2021/10/23 04:22:49;;;;;;;6.85;5.35;;;;;;;16.41;68.39;101188.44;5009674;28;102102;-80
2021/10/23 04:25:16;;;;;;;6.47;5.53;;;;;;;16.41;68.05;101182.94;5009325;28;102457;-80
2021/10/23 04:27:43;;;;;;;6.25;5.38;;;;;;;16.40;68.09;101182.13;5011539;28;103684;-80
2021/10/23 04:30:11;;;;;;;6.55;5.63;;;;;;;16.40;67.89;101184.88;5002969;28;102137;-91
2021/10/23 04:32:37;;;;;;;5.95;4.93;;;;;;;16.40;68.24;101184.88;5002507;28;102262;-91
2021/10/23 04:35:05;;;;;;;6.60;5.63;;;;;;;16.41;67.94;101181.03;5013328;28;102656;-91
2021/10/23 04:37:32;;;;;;;6.05;5.30;;;;;;;16.41;68.52;101182.94;5007863;28;102871;-89
2021/10/23 04:39:58;;;;;;;6.35;5.70;;;;;;;16.41;68.59;101182.94;5011006;28;102372;-89
2021/10/23 04:42:26;;;;;;;6.07;5.45;;;;;;;16.41;68.27;101186.53;5010820;28;102280;-89
2021/10/23 04:44:52;;;;;;;6.15;5.43;;;;;;;16.40;68.05;101187.63;5014920;28;102304;-92
2021/10/23 04:47:22;;;;;;;6.35;5.35;;;;;;;16.40;67.89;101187.63;5007693;28;103081;-94
2021/10/23 04:49:51;;;;;;;5.90;5.30;;;;;;;16.41;68.21;101194.78;5012856;28;102192;-90
2021/10/23 04:52:18;;;;;;;6.95;5.13;;;;;;;16.40;68.24;101193.13;5008264;28;102192;-79
2021/10/23 04:54:45;;;;;;;6.93;5.45;;;;;;;16.40;68.46;101193.13;5015264;28;103105;-80
2021/10/23 04:57:12;;;;;;;5.97;5.28;;;;;;;16.39;68.33;101191.50;5007820;28;103390;-80
2021/10/23 04:59:38;;;;;;;6.20;5.63;;;;;;;16.40;68.22;101193.13;5010644;27;104497;-79
2021/10/23 05:02:05;;;;;;;5.88;5.25;;;;;;;16.41;68.27;101197.53;5009753;28;102546;-79
2021/10/23 05:04:33;;;;;;;6.07;5.03;;;;;;;16.41;68.29;101200.28;5003691;28;102520;-79
2021/10/23 05:07:00;;;;;;;6.82;5.80;;;;;;;16.40;68.12;101198.63;5011707;28;103936;-80
2021/10/23 05:09:27;;;;;;;6.38;5.75;;;;;;;16.40;68.11;101209.59;5006370;28;102230;-79
2021/10/23 05:11:54;;;;;;;6.60;5.25;;;;;;;16.40;68.16;101215.09;5016584;28;102587;-94
2021/10/23 05:14:21;;;;;;;5.80;5.15;;;;;;;16.41;68.15;101227.75;5016553;28;102943;-94
2021/10/23 05:17:06;;;;;;;6.45;5.63;;;;;;;16.40;68.68;101225.28;5014155;28;102073;-94
2021/10/23 05:19:34;;;;;;;6.93;5.45;;;;;;;16.40;68.08;101226.09;5011903;28;102877;-93
2021/10/23 05:22:01;;;;;;;6.68;5.57;;;;;;;16.40;67.94;101231.59;5010520;28;102382;-93
2021/10/23 05:24:28;;;;;;;6.78;5.50;;;;;;;16.40;67.91;101231.59;5016843;28;102153;-94
2021/10/23 05:26:55;;;;;;;5.18;4.68;;;;;;;16.40;68.02;101237.06;5013417;28;107635;-93
2021/10/23 05:29:21;;;;;;;5.85;5.13;;;;;;;16.39;68.03;101243.69;5010481;28;103876;-88
2021/10/23 05:31:48;;;;;;;6.35;5.25;;;;;;;16.40;67.91;101231.59;5004455;28;102614;-80
2021/10/23 05:34:15;;;;;;;5.78;5.07;;;;;;;16.41;68.24;101238.72;5014419;28;105182;-81
2021/10/23 05:36:43;;;;;;;6.78;5.45;;;;;;;16.41;68.17;101243.38;5007996;28;104613;-81
2021/10/23 05:39:10;;;;;;;7.82;5.72;;;;;;;16.41;68.06;101255.22;5014119;28;102609;-81
2021/10/23 05:41:36;;;;;;;6.30;5.15;;;;;;;16.41;68.34;101243.38;5013196;28;102172;-80
2021/10/23 05:44:03;;;;;;;7.30;5.57;;;;;;;16.40;68.03;101253.56;5016052;28;102734;-80
2021/10/23 05:46:30;;;;;;;6.90;6.07;;;;;;;16.41;67.67;101251.63;5010341;28;103280;-82
2021/10/23 05:48:56;;;;;;;7.18;5.50;;;;;;;16.40;67.92;101259.06;5014565;28;102143;-80
2021/10/23 05:51:23;;;;;;;6.32;5.20;;;;;;;16.41;67.85;101259.88;5001038;28;102633;-81
2021/10/23 05:53:52;;;;;;;5.82;4.85;;;;;;;16.40;68.06;101272.78;5014989;28;102439;-81
2021/10/23 05:56:18;;;;;;;6.18;5.38;;;;;;;16.41;68.17;101287.34;5007683;28;104080;-81
2021/10/23 05:58:45;;;;;;;6.72;5.45;;;;;;;16.41;68.15;101285.44;5010694;28;102596;-81
2021/10/23 06:01:13;;;;;;;7.75;5.95;;;;;;;16.40;67.86;101286.53;5015423;28;102497;-81
2021/10/23 06:03:40;;;;;;;6.50;5.78;;;;;;;16.41;68.30;101281.84;5010713;28;103593;-81
2021/10/23 06:06:08;;;;;;;6.75;5.45;;;;;;;16.40;68.49;101292.03;5013733;28;103078;-81
2021/10/23 06:08:36;;;;;;;7.30;5.15;;;;;;;16.40;68.05;101289.28;5015745;28;102031;-83
2021/10/23 06:11:04;;;;;;;6.55;5.60;;;;;;;16.40;67.99;101300.25;5015224;28;102566;-83
2021/10/23 06:13:34;;;;;;;8.88;5.85;;;;;;;16.41;68.18;101299.16;5015894;28;102453;-84
2021/10/23 06:16:02;;;;;;;6.63;5.85;;;;;;;16.40;68.49;101294.75;5006540;28;105267;-84
2021/10/23 06:18:30;;;;;;;7.88;6.07;;;;;;;16.41;68.00;101293.69;5012514;28;102616;-84
2021/10/23 06:20:57;;;;;;;6.70;6.00;;;;;;;16.40;68.21;101311.25;5011594;28;102293;-86
2021/10/23 06:23:28;;;;;;;7.90;6.55;;;;;;;16.41;68.47;101320.31;5004089;28;102785;-85
2021/10/23 06:26:00;;;;;;;8.35;6.47;;;;;;;16.41;68.38;101323.91;5009836;28;102788;-81
2021/10/23 06:28:28;;;;;;;7.78;6.32;;;;;;;16.40;68.09;101327.72;5009893;28;102836;-81
2021/10/23 06:30:55;;;;;;;10.63;6.40;;;;;;;16.41;67.95;101329.38;5008277;28;103348;-81
2021/10/23 06:33:22;;;;;;;7.88;6.05;;;;;;;16.41;68.58;101337.63;5005571;28;102457;-82
2021/10/23 06:35:48;;;;;;;8.75;7.03;;;;;;;16.41;68.07;101334.03;5014808;28;104386;-82
2021/10/23 06:38:14;;;;;;;7.20;6.13;;;;;;;16.42;68.31;101341.19;5013930;28;102107;-81
2021/10/23 06:40:41;;;;;;;9.68;7.00;;;;;;;16.42;68.49;101354.94;5012893;28;102336;-82
2021/10/23 06:43:10;;;;;;;9.13;6.30;;;;;;;16.41;68.40;101365.09;5011706;28;102657;-85
2021/10/23 06:45:38;;;;;;;8.50;6.63;;;;;;;16.41;67.99;101359.59;4997577;28;103668;-85
2021/10/23 06:48:06;;;;;;;8.23;6.40;;;;;;;16.40;68.19;101357.94;4995924;28;103907;-86
2021/10/23 06:50:34;;;;;;;7.40;6.55;;;;;;;16.41;68.57;101359.59;4998537;28;103645;-85
2021/10/23 06:53:01;;;;;;;9.20;7.05;;;;;;;16.41;68.24;101359.59;5007594;28;103483;-84
2021/10/23 06:55:28;;;;;;;8.57;6.28;;;;;;;16.41;68.58;101362.34;5006765;28;104422;-84
2021/10/23 06:57:55;;;;;;;7.93;5.97;;;;;;;16.42;68.18;101360.41;4998579;28;103887;-84
2021/10/23 07:00:22;;;;;;;8.25;6.50;;;;;;;16.41;68.11;101367.84;4995600;28;103916;-84
2021/10/23 07:02:53;;;;;;;9.15;5.95;;;;;;;16.41;68.05;101367.84;4979888;28;103707;-86
2021/10/23 07:05:21;;;;;;;7.18;6.40;;;;;;;16.41;68.00;101376.09;4986883;28;103732;-84
2021/10/23 07:07:47;;;;;;;8.27;6.60;;;;;;;16.41;68.18;101375.25;4997922;28;103000;-84
2021/10/23 07:10:14;;;;;;;7.82;6.32;;;;;;;16.41;68.43;101376.09;5011250;28;102286;-84
2021/10/23 07:12:41;;;;;;;8.40;6.55;;;;;;;16.42;68.47;101387.88;5004124;28;102245;-84
2021/10/23 07:15:09;;;;;;;9.55;6.85;;;;;;;16.42;67.94;101379.66;5008178;28;106078;-83
2021/10/23 07:17:44;;;;;;;9.23;6.47;;;;;;;16.42;68.33;101385.16;5008991;28;102364;-84
2021/10/23 07:20:12;;;;;;;8.35;6.57;;;;;;;16.42;68.41;101388.69;5013434;28;102100;-83
2021/10/23 07:22:41;;;;;;;9.13;6.10;;;;;;;16.41;68.58;101384.34;5013472;28;102170;-84
2021/10/23 07:25:08;;;;;;;8.80;7.18;;;;;;;16.43;67.96;101378.53;5012382;28;103937;-84
2021/10/23 07:27:35;;;;;;;8.63;6.78;;;;;;;16.42;68.25;101376.91;5010467;28;102728;-84
2021/10/23 07:30:06;;;;;;;8.05;6.38;;;;;;;16.42;68.24;101374.97;5005592;28;103902;-88
2021/10/23 07:32:33;;;;;;;7.97;6.53;;;;;;;16.42;68.50;101372.22;5014071;28;102303;-84
2021/10/23 07:35:00;;;;;;;7.20;6.32;;;;;;;16.41;68.21;101387.06;5008341;28;107769;-84
2021/10/23 07:37:28;;;;;;;8.52;6.68;;;;;;;16.42;68.47;101385.16;5008338;28;102435;-87
2021/10/23 09:25:07;;;;;;;26.30;17.23;;;;;;;16.20;68.08;101404.91;5026595;27;102138;-55
2021/10/23 09:27:34;;;;;;;23.23;13.75;;;;;;;16.19;68.50;101403.25;5022683;27;102490;-53
2021/10/23 09:30:01;;;;;;;24.10;12.95;;;;;;;16.19;68.00;101403.25;5022061;27;104018;-53
2021/10/23 09:32:32;;;;;;;17.42;11.15;;;;;;;16.18;68.01;101399.69;5022886;27;102695;-53
2021/10/23 09:35:12;;;;;;;14.35;9.18;;;;;;;16.18;68.26;101402.44;5031608;28;102001;-53
2021/10/23 09:37:43;;;;;;;16.50;10.25;;;;;;;16.19;68.35;101400.50;5026859;28;102079;-53
2021/10/23 09:40:18;;;;;;;14.25;9.35;;;;;;;16.18;67.90;101396.13;5029099;28;102696;-53
2021/10/23 09:42:47;;;;;;;17.38;10.38;;;;;;;16.17;67.98;101398.06;5024203;28;102128;-53
2021/10/23 09:45:13;;;;;;;20.88;9.75;;;;;;;16.17;68.15;101395.31;5032613;28;102466;-53
2021/10/23 09:47:42;;;;;;;14.40;9.38;;;;;;;16.17;68.20;101395.31;5033505;28;102268;-53
2021/10/23 09:50:14;;;;;;;16.15;9.55;;;;;;;16.17;68.01;101397.25;5026310;27;104137;-53
2021/10/23 09:53:03;;;;;;;13.77;8.48;;;;;;;16.18;67.84;101409.88;5029438;28;102680;-53
2021/10/23 09:55:49;;;;;;;11.75;7.95;;;;;;;16.17;67.97;101414.53;5032170;28;102118;-53
2021/10/23 09:58:17;;;;;;;12.48;7.88;;;;;;;16.17;68.00;101409.06;5029847;28;102928;-54
2021/10/23 10:00:45;;;;;;;11.80;8.20;;;;;;;16.16;67.85;101395.63;5026086;27;103704;-53
2021/10/23 10:03:13;;;;;;;;;;;;;;;16.18;67.86;101396.13;5029804;27;103607;-53
2021/10/23 10:05:40;;;;;;;12.10;8.13;;;;;;;16.16;68.03;101390.94;5031979;27;102033;-54
2021/10/23 10:08:09;;;;;;;11.55;7.30;;;;;;;16.17;67.93;101391.75;5030923;28;105472;-53
2021/10/23 10:10:38;;;;;;;9.88;7.20;;;;;;;16.17;68.25;101386.28;5029534;27;103916;-54
2021/10/23 10:13:08;;;;;;;12.40;7.75;;;;;;;16.17;68.10;101391.75;5024517;28;102304;-53
2021/10/23 10:15:37;;;;;;;9.60;7.32;;;;;;;16.18;68.40;101396.13;5011490;28;102052;-53
2021/10/23 10:18:05;;;;;;;11.13;7.72;;;;;;;16.17;68.08;101392.56;5010456;28;102226;-53
2021/10/23 10:20:34;;;;;;;10.20;7.47;;;;;;;16.17;68.33;101391.75;5005771;28;103934;-53
2021/10/23 10:23:01;;;;;;;9.60;6.38;;;;;;;16.18;67.78;101393.38;5008514;28;102270;-53
2021/10/23 10:25:31;;;;;;;8.77;6.65;;;;;;;16.17;67.82;101391.75;5000243;28;102094;-53
2021/10/23 10:28:10;;;;;;;9.52;6.07;;;;;;;16.19;67.85;101384.03;5000876;28;102700;-54
2021/10/23 10:30:39;;;;;;;9.52;6.68;;;;;;;16.18;68.35;101374.97;4997261;28;103900;-53
2021/10/23 10:33:26;;;;;;;8.88;6.18;;;;;;;16.19;68.28;101375.78;4998136;28;102661;-53
2021/10/23 10:36:32;;;;;;;8.30;5.88;;;;;;;16.19;67.99;101378.53;4998390;28;102641;-53
2021/10/23 10:39:24;;;;;;;8.68;6.20;;;;;;;16.19;67.91;101373.91;5000792;28;102143;-53
2021/10/23 10:45:28;;;;;;;9.90;5.40;;;;;;;16.20;68.04;101386.50;4996160;28;103309;-53
2021/10/23 10:48:15;;;;;;;8.10;5.88;;;;;;;16.21;68.05;101381.81;4995824;28;102066;-53
2021/10/23 10:50:44;;;;;;;7.55;5.45;;;;;;;16.21;67.97;101377.16;4995085;28;102209;-53
2021/10/23 10:53:21;;;;;;;8.20;5.47;;;;;;;16.20;68.39;101371.97;4995915;28;103929;-54
2021/10/23 10:55:51;;;;;;;8.05;5.68;;;;;;;16.21;67.98;101368.91;4995551;28;102266;-53
2021/10/23 10:58:18;;;;;;;7.05;5.25;;;;;;;16.23;67.95;101368.63;4995324;28;102232;-53
2021/10/23 11:01:11;;;;;;;6.57;4.78;;;;;;;16.22;67.98;101369.72;4986175;28;110112;-53
2021/10/23 11:04:05;;;;;;;5.93;4.70;;;;;;;16.22;68.32;101369.72;4995763;28;103652;-53
2021/10/23 11:06:52;;;;;;;6.00;4.57;;;;;;;16.23;68.04;101371.38;4996561;28;102588;-53
2021/10/23 11:09:30;;;;;;;6.25;4.50;;;;;;;16.22;68.28;101365.03;4988896;28;102118;-53
2021/10/23 11:12:16;;;;;;;6.05;4.20;;;;;;;16.24;68.79;101375.75;4997919;28;102069;-53
2021/10/23 11:14:43;;;;;;;7.15;3.55;;;;;;;16.24;68.04;101373.81;4984796;28;103958;-53
2021/10/23 11:17:20;;;;;;;14.77;5.30;;;;;;;16.24;68.25;101370.25;4998022;28;103092;-60
2021/10/23 11:19:53;;;;;;;48.55;8.00;;;;;;;16.25;68.55;101369.13;4997984;28;102041;-55
2021/10/23 11:22:22;;;;;;;87.80;10.23;;;;;;;16.26;68.46;101374.34;4986704;28;102629;-50
2021/10/23 11:24:51;;;;;;;62.28;7.75;;;;;;;16.27;68.68;101366.94;4994922;28;103746;-48
2021/10/23 11:27:30;;;;;;;56.78;8.52;;;;;;;16.27;68.85;101367.75;4996977;28;102194;-51
2021/10/23 11:30:16;;;;;;;60.10;9.38;;;;;;;16.28;68.24;101357.56;4997308;28;102565;-49
2021/10/23 11:32:53;;;;;;;65.40;8.27;;;;;;;16.29;68.69;101362.75;4991586;28;102382;-47
2021/10/23 11:35:31;;;;;;;37.10;6.22;;;;;;;16.30;68.50;101360.81;4995259;28;103940;-52
2021/10/23 11:38:00;;;;;;;38.45;5.88;;;;;;;16.30;68.50;101358.06;4984125;28;103213;-48
2021/10/23 11:40:26;;;;;;;32.08;5.07;;;;;;;16.31;68.43;101359.72;4994037;28;103008;-49
2021/10/23 11:42:53;;;;;;;30.67;5.03;;;;;;;16.32;68.31;101353.13;4996171;28;102216;-50
2021/10/23 11:45:23;;;;;;;40.70;6.68;;;;;;;16.33;68.53;101343.75;4993794;28;103781;-49
2021/10/23 11:47:52;;;;;;;58.97;7.40;;;;;;;16.34;68.73;101345.41;4996286;28;102544;-60
2021/10/23 11:50:24;;;;;;;50.83;6.23;;;;;;;16.36;68.49;101342.34;5027978;22;102394;-89
2021/10/23 11:52:51;;;;;;;35.17;4.50;;;;;;;16.36;68.38;101345.09;5024356;27;102095;-88
2021/10/23 11:55:33;;;;;;;31.73;5.30;;;;;;;16.37;68.63;101344.78;5025579;28;102751;-89
2021/10/23 11:58:02;;;;;;;28.77;4.38;;;;;;;16.37;68.70;101342.06;5029673;28;102012;-88
2021/10/23 12:00:34;;;;;;;23.15;4.30;;;;;;;16.38;68.38;101343.72;5033544;27;102234;-88
2021/10/23 12:03:04;;;;;;;24.92;3.70;;;;;;;16.39;68.23;101333.53;5039238;28;102221;-88
2021/10/23 12:05:44;;;;;;;24.73;4.63;;;;;;;16.39;68.40;101339.84;5031630;28;102700;-88
2021/10/23 12:08:20;;;;;;;24.23;4.53;;;;;;;16.39;68.15;101348.09;5033447;27;102081;-88
2021/10/23 12:11:07;;;;;;;17.55;5.00;;;;;;;16.40;68.09;101351.63;5036010;27;102129;-89
2021/10/23 12:13:55;;;;;;;16.80;4.72;;;;;;;16.39;67.97;101350.81;5025858;27;102010;-89
2021/10/23 12:16:34;;;;;;;11.07;3.85;;;;;;;16.40;67.99;101351.63;5021223;28;102798;-89
2021/10/23 12:19:05;;;;;;;8.93;3.60;;;;;;;16.39;68.13;101350.81;5043395;27;102030;-89
2021/10/23 12:21:43;;;;;;;6.80;2.80;;;;;;;16.40;67.85;101357.94;5032046;27;102443;-89
2021/10/23 12:24:20;;;;;;;9.18;2.78;;;;;;;16.39;67.80;101342.59;5025527;27;102159;-89
2021/10/23 12:27:09;;;;;;;3.20;1.77;;;;;;;16.38;67.71;101349.19;5026441;28;102804;-89
2021/10/23 12:29:38;;;;;;;5.03;2.30;;;;;;;16.37;67.42;101349.47;5026005;28;102102;-89
2021/10/23 12:32:06;;;;;;;3.22;1.48;;;;;;;16.37;67.28;101353.03;5049927;27;102212;-89
2021/10/23 12:35:00;;;;;;;2.70;1.10;;;;;;;16.36;66.95;101362.41;5034972;27;102193;-89
2021/10/23 12:37:39;;;;;;;2.47;1.75;;;;;;;16.36;67.17;101364.34;5025892;27;102647;-89
2021/10/23 12:40:08;;;;;;;;;;;;;;;16.34;66.85;101357.22;5026172;27;102055;-89
2021/10/23 12:42:36;;;;;;;2.67;1.27;;;;;;;16.33;66.83;101360.25;5027190;27;102175;-89
2021/10/23 12:45:05;;;;;;;2.47;1.40;;;;;;;16.32;66.73;101356.69;5023766;28;102108;-89
2021/10/23 12:47:33;;;;;;;4.70;2.00;;;;;;;16.32;66.50;101370.41;5031998;27;102690;-89
2021/10/23 12:50:01;;;;;;;2.47;1.50;;;;;;;16.31;66.75;101365.22;5034006;28;102226;-89
2021/10/23 12:52:28;;;;;;;2.58;1.73;;;;;;;16.31;66.64;101371.53;5030731;28;102426;-89
2021/10/23 12:54:58;;;;;;;3.45;1.85;;;;;;;16.31;66.54;101377.03;5028705;28;102186;-89
2021/10/23 12:57:25;;;;;;;2.60;2.20;;;;;;;16.31;66.15;101371.53;5026600;28;102738;-93
2021/10/23 12:59:52;;;;;;;3.95;2.20;;;;;;;16.31;66.72;101376.22;5023586;28;101833;-88
2021/10/23 13:02:19;;;;;;;4.75;2.38;;;;;;;16.31;66.34;101373.47;5027053;28;102030;-86
2021/10/23 13:04:45;;;;;;;4.70;2.30;;;;;;;16.32;66.78;101373.16;5036549;28;102353;-86
2021/10/23 13:07:15;;;;;;;7.28;2.60;;;;;;;16.32;66.31;101383.34;5040713;27;102801;-86
2021/10/23 13:09:42;;;;;;;4.28;2.60;;;;;;;16.33;66.07;101374.78;5029215;27;101805;-86
2021/10/23 13:12:08;;;;;;;3.80;2.25;;;;;;;16.33;66.16;101379.47;5037135;28;101995;-86
2021/10/23 13:14:35;;;;;;;4.60;2.60;;;;;;;16.33;66.32;101373.97;5037512;28;102157;-86